sensor_id;sensor_type;location;lat;lon;timestamp;P1;durP1;ratioP1;P2;durP2;ratioP2
59016;SDS011;44800;55.600;38.134;2023-05-07T00:00:00;10.73;;;5.18;;
59016;SDS011;44800;55.600;38.134;2023-05-07T00:02:34;9.82;;;4.95;;
59016;SDS011;44800;55.600;38.134;2023-05-07T00:05:04;8.70;;;4.70;;
59016;SDS011;44800;55.600;38.134;2023-05-07T00:07:34;10.23;;;4.32;;
59016;SDS011;44800;55.600;38.134;2023-05-07T00:10:02;9.73;;;4.40;;
59016;SDS011;44800;55.600;38.134;2023-05-07T00:12:32;11.35;;;5.70;;
59016;SDS011;44800;55.600;38.134;2023-05-07T00:15:01;12.88;;;4.85;;
59016;SDS011;44800;55.600;38.134;2023-05-07T00:17:35;10.73;;;4.60;;
59016;SDS011;44800;55.600;38.134;2023-05-07T00:20:04;9.88;;;4.95;;
59016;SDS011;44800;55.600;38.134;2023-05-07T00:22:33;9.90;;;4.63;;
59016;SDS011;44800;55.600;38.134;2023-05-07T00:25:02;11.30;;;4.95;;
59016;SDS011;44800;55.600;38.134;2023-05-07T00:27:32;8.00;;;4.40;;
59016;SDS011;44800;55.600;38.134;2023-05-07T00:30:00;11.40;;;4.35;;
59016;SDS011;44800;55.600;38.134;2023-05-07T00:32:35;8.23;;;3.92;;
59016;SDS011;44800;55.600;38.134;2023-05-07T00:35:04;11.27;;;4.60;;
59016;SDS011;44800;55.600;38.134;2023-05-07T00:37:33;7.75;;;3.97;;
59016;SDS011;44800;55.600;38.134;2023-05-07T00:40:01;7.65;;;3.83;;
59016;SDS011;44800;55.600;38.134;2023-05-07T00:42:33;8.40;;;4.05;;
59016;SDS011;44800;55.600;38.134;2023-05-07T00:45:02;9.30;;;4.40;;
59016;SDS011;44800;55.600;38.134;2023-05-07T00:47:32;7.85;;;4.20;;
59016;SDS011;44800;55.600;38.134;2023-05-07T00:50:01;9.73;;;4.95;;
59016;SDS011;44800;55.600;38.134;2023-05-07T00:52:32;8.93;;;4.45;;
59016;SDS011;44800;55.600;38.134;2023-05-07T00:55:01;8.88;;;4.90;;
59016;SDS011;44800;55.600;38.134;2023-05-07T00:57:34;12.05;;;4.65;;
59016;SDS011;44800;55.600;38.134;2023-05-07T01:00:05;8.73;;;4.35;;
59016;SDS011;44800;55.600;38.134;2023-05-07T01:02:35;9.35;;;4.90;;
59016;SDS011;44800;55.600;38.134;2023-05-07T01:05:06;10.25;;;4.63;;
59016;SDS011;44800;55.600;38.134;2023-05-07T01:07:36;12.25;;;5.03;;
59016;SDS011;44800;55.600;38.134;2023-05-07T01:10:07;7.78;;;3.70;;
59016;SDS011;44800;55.600;38.134;2023-05-07T01:12:37;11.15;;;5.03;;
59016;SDS011;44800;55.600;38.134;2023-05-07T01:15:06;6.38;;;3.88;;
59016;SDS011;44800;55.600;38.134;2023-05-07T01:17:36;12.63;;;4.75;;
59016;SDS011;44800;55.600;38.134;2023-05-07T01:20:07;15.82;;;4.68;;
59016;SDS011;44800;55.600;38.134;2023-05-07T01:22:38;8.15;;;4.25;;
59016;SDS011;44800;55.600;38.134;2023-05-07T01:25:08;7.03;;;4.45;;
59016;SDS011;44800;55.600;38.134;2023-05-07T01:27:37;12.48;;;4.43;;
59016;SDS011;44800;55.600;38.134;2023-05-07T01:30:05;25.77;;;5.20;;
59016;SDS011;44800;55.600;38.134;2023-05-07T01:32:37;10.80;;;6.35;;
59016;SDS011;44800;55.600;38.134;2023-05-07T01:35:09;14.02;;;4.55;;
59016;SDS011;44800;55.600;38.134;2023-05-07T01:37:40;9.32;;;4.95;;
59016;SDS011;44800;55.600;38.134;2023-05-07T01:40:09;9.52;;;4.20;;
59016;SDS011;44800;55.600;38.134;2023-05-07T01:42:38;14.43;;;5.47;;
59016;SDS011;44800;55.600;38.134;2023-05-07T01:45:07;8.80;;;3.95;;
59016;SDS011;44800;55.600;38.134;2023-05-07T01:47:36;12.20;;;4.72;;
59016;SDS011;44800;55.600;38.134;2023-05-07T01:50:05;12.13;;;4.53;;
59016;SDS011;44800;55.600;38.134;2023-05-07T01:52:37;14.20;;;5.07;;
59016;SDS011;44800;55.600;38.134;2023-05-07T01:55:07;7.75;;;4.53;;
59016;SDS011;44800;55.600;38.134;2023-05-07T01:57:37;14.25;;;4.85;;
59016;SDS011;44800;55.600;38.134;2023-05-07T02:00:06;14.13;;;4.88;;
59016;SDS011;44800;55.600;38.134;2023-05-07T02:02:36;14.15;;;5.45;;
59016;SDS011;44800;55.600;38.134;2023-05-07T02:05:06;11.65;;;5.03;;
59016;SDS011;44800;55.600;38.134;2023-05-07T02:07:35;10.43;;;4.68;;
59016;SDS011;44800;55.600;38.134;2023-05-07T02:10:05;8.73;;;4.43;;
59016;SDS011;44800;55.600;38.134;2023-05-07T02:12:35;10.95;;;5.65;;
59016;SDS011;44800;55.600;38.134;2023-05-07T02:15:04;14.73;;;5.22;;
59016;SDS011;44800;55.600;38.134;2023-05-07T02:17:33;10.88;;;5.20;;
59016;SDS011;44800;55.600;38.134;2023-05-07T02:20:04;10.38;;;4.45;;
59016;SDS011;44800;55.600;38.134;2023-05-07T02:22:59;17.42;;;5.53;;
59016;SDS011;44800;55.600;38.134;2023-05-07T02:25:29;15.48;;;5.40;;
59016;SDS011;44800;55.600;38.134;2023-05-07T02:27:58;8.20;;;4.50;;
59016;SDS011;44800;55.600;38.134;2023-05-07T02:30:27;12.38;;;5.28;;
59016;SDS011;44800;55.600;38.134;2023-05-07T02:32:55;10.43;;;5.15;;
59016;SDS011;44800;55.600;38.134;2023-05-07T02:35:23;13.18;;;6.25;;
59016;SDS011;44800;55.600;38.134;2023-05-07T02:37:52;16.35;;;6.22;;
59016;SDS011;44800;55.600;38.134;2023-05-07T02:40:21;9.43;;;5.53;;
59016;SDS011;44800;55.600;38.134;2023-05-07T02:42:50;11.18;;;5.97;;
59016;SDS011;44800;55.600;38.134;2023-05-07T02:45:19;12.95;;;6.20;;
59016;SDS011;44800;55.600;38.134;2023-05-07T02:47:47;15.10;;;6.65;;
59016;SDS011;44800;55.600;38.134;2023-05-07T02:50:16;16.80;;;5.95;;
59016;SDS011;44800;55.600;38.134;2023-05-07T02:52:44;19.23;;;6.25;;
59016;SDS011;44800;55.600;38.134;2023-05-07T02:55:13;11.60;;;6.25;;
59016;SDS011;44800;55.600;38.134;2023-05-07T02:57:42;16.98;;;5.35;;
59016;SDS011;44800;55.600;38.134;2023-05-07T03:00:13;9.73;;;5.07;;
59016;SDS011;44800;55.600;38.134;2023-05-07T03:02:44;12.02;;;4.82;;
59016;SDS011;44800;55.600;38.134;2023-05-07T03:05:13;12.02;;;4.85;;
59016;SDS011;44800;55.600;38.134;2023-05-07T03:07:41;5.93;;;3.78;;
59016;SDS011;44800;55.600;38.134;2023-05-07T03:10:13;10.32;;;4.85;;
59016;SDS011;44800;55.600;38.134;2023-05-07T03:12:41;8.45;;;4.05;;
59016;SDS011;44800;55.600;38.134;2023-05-07T03:15:10;8.77;;;4.00;;
59016;SDS011;44800;55.600;38.134;2023-05-07T03:17:40;12.85;;;4.15;;
59016;SDS011;44800;55.600;38.134;2023-05-07T03:20:09;9.52;;;4.22;;
59016;SDS011;44800;55.600;38.134;2023-05-07T03:22:38;8.52;;;4.13;;
59016;SDS011;44800;55.600;38.134;2023-05-07T03:25:08;6.70;;;4.43;;
59016;SDS011;44800;55.600;38.134;2023-05-07T03:27:37;9.43;;;3.67;;
59016;SDS011;44800;55.600;38.134;2023-05-07T03:30:06;7.93;;;4.20;;
59016;SDS011;44800;55.600;38.134;2023-05-07T03:32:36;9.48;;;4.20;;
59016;SDS011;44800;55.600;38.134;2023-05-07T03:35:06;6.85;;;4.28;;
59016;SDS011;44800;55.600;38.134;2023-05-07T03:37:35;9.32;;;4.43;;
59016;SDS011;44800;55.600;38.134;2023-05-07T03:40:03;5.63;;;3.33;;
59016;SDS011;44800;55.600;38.134;2023-05-07T03:42:32;6.25;;;3.20;;
59016;SDS011;44800;55.600;38.134;2023-05-07T03:45:01;6.95;;;3.60;;
59016;SDS011;44800;55.600;38.134;2023-05-07T03:47:31;12.25;;;4.30;;
59016;SDS011;44800;55.600;38.134;2023-05-07T03:49:59;6.15;;;2.95;;
59016;SDS011;44800;55.600;38.134;2023-05-07T03:52:31;7.63;;;3.53;;
59016;SDS011;44800;55.600;38.134;2023-05-07T03:54:59;6.63;;;3.53;;
59016;SDS011;44800;55.600;38.134;2023-05-07T03:57:29;6.40;;;3.55;;
59016;SDS011;44800;55.600;38.134;2023-05-07T03:59:57;9.45;;;2.90;;
59016;SDS011;44800;55.600;38.134;2023-05-07T04:02:26;8.38;;;3.25;;
59016;SDS011;44800;55.600;38.134;2023-05-07T04:04:55;7.28;;;3.00;;
59016;SDS011;44800;55.600;38.134;2023-05-07T04:07:24;8.45;;;3.20;;
59016;SDS011;44800;55.600;38.134;2023-05-07T04:09:53;6.93;;;2.90;;
59016;SDS011;44800;55.600;38.134;2023-05-07T04:12:22;18.08;;;7.45;;
59016;SDS011;44800;55.600;38.134;2023-05-07T04:14:50;7.40;;;4.55;;
59016;SDS011;44800;55.600;38.134;2023-05-07T04:17:18;7.78;;;4.10;;
59016;SDS011;44800;55.600;38.134;2023-05-07T04:19:47;11.20;;;4.28;;
59016;SDS011;44800;55.600;38.134;2023-05-07T04:22:15;4.72;;;2.20;;
59016;SDS011;44800;55.600;38.134;2023-05-07T04:24:44;40.03;;;7.43;;
59016;SDS011;44800;55.600;38.134;2023-05-07T04:27:14;7.55;;;2.55;;
59016;SDS011;44800;55.600;38.134;2023-05-07T04:29:42;7.47;;;3.10;;
59016;SDS011;44800;55.600;38.134;2023-05-07T04:32:13;5.85;;;2.65;;
59016;SDS011;44800;55.600;38.134;2023-05-07T04:34:42;6.82;;;2.63;;
59016;SDS011;44800;55.600;38.134;2023-05-07T04:37:11;5.45;;;2.13;;
59016;SDS011;44800;55.600;38.134;2023-05-07T04:39:40;4.18;;;2.47;;
59016;SDS011;44800;55.600;38.134;2023-05-07T04:42:08;7.95;;;3.70;;
59016;SDS011;44800;55.600;38.134;2023-05-07T04:44:38;9.98;;;2.90;;
59016;SDS011;44800;55.600;38.134;2023-05-07T04:47:07;4.90;;;2.15;;
59016;SDS011;44800;55.600;38.134;2023-05-07T04:49:36;4.55;;;1.85;;
59016;SDS011;44800;55.600;38.134;2023-05-07T04:52:04;4.60;;;2.67;;
59016;SDS011;44800;55.600;38.134;2023-05-07T04:54:32;4.25;;;2.83;;
59016;SDS011;44800;55.600;38.134;2023-05-07T04:57:03;5.25;;;2.40;;
59016;SDS011;44800;55.600;38.134;2023-05-07T04:59:31;6.38;;;2.42;;
59016;SDS011;44800;55.600;38.134;2023-05-07T05:02:01;5.00;;;2.30;;
59016;SDS011;44800;55.600;38.134;2023-05-07T05:04:30;3.50;;;1.40;;
59016;SDS011;44800;55.600;38.134;2023-05-07T05:06:59;3.53;;;1.95;;
59016;SDS011;44800;55.600;38.134;2023-05-07T05:09:28;4.55;;;2.25;;
59016;SDS011;44800;55.600;38.134;2023-05-07T05:11:57;3.58;;;1.80;;
59016;SDS011;44800;55.600;38.134;2023-05-07T05:14:25;4.47;;;2.72;;
59016;SDS011;44800;55.600;38.134;2023-05-07T05:16:53;5.20;;;2.50;;
59016;SDS011;44800;55.600;38.134;2023-05-07T05:19:23;5.15;;;1.98;;
59016;SDS011;44800;55.600;38.134;2023-05-07T05:21:52;2.53;;;1.80;;
59016;SDS011;44800;55.600;38.134;2023-05-07T05:24:20;3.30;;;2.28;;
59016;SDS011;44800;55.600;38.134;2023-05-07T05:26:49;3.92;;;2.10;;
59016;SDS011;44800;55.600;38.134;2023-05-07T05:29:17;4.97;;;1.70;;
59016;SDS011;44800;55.600;38.134;2023-05-07T05:31:45;4.35;;;1.92;;
59016;SDS011;44800;55.600;38.134;2023-05-07T05:34:14;2.00;;;1.33;;
59016;SDS011;44800;55.600;38.134;2023-05-07T05:36:45;4.03;;;1.95;;
59016;SDS011;44800;55.600;38.134;2023-05-07T05:39:13;3.22;;;1.60;;
59016;SDS011;44800;55.600;38.134;2023-05-07T05:41:42;3.08;;;1.67;;
59016;SDS011;44800;55.600;38.134;2023-05-07T05:44:11;2.97;;;1.00;;
59016;SDS011;44800;55.600;38.134;2023-05-07T05:46:40;2.67;;;1.65;;
59016;SDS011;44800;55.600;38.134;2023-05-07T05:49:08;2.30;;;1.70;;
59016;SDS011;44800;55.600;38.134;2023-05-07T05:51:36;2.25;;;1.60;;
59016;SDS011;44800;55.600;38.134;2023-05-07T05:54:06;3.92;;;1.75;;
59016;SDS011;44800;55.600;38.134;2023-05-07T05:56:35;3.45;;;1.30;;
59016;SDS011;44800;55.600;38.134;2023-05-07T05:59:04;3.85;;;1.50;;
59016;SDS011;44800;55.600;38.134;2023-05-07T06:01:33;2.72;;;1.35;;
59016;SDS011;44800;55.600;38.134;2023-05-07T06:04:02;3.28;;;1.95;;
59016;SDS011;44800;55.600;38.134;2023-05-07T06:06:30;6.13;;;2.10;;
59016;SDS011;44800;55.600;38.134;2023-05-07T06:08:59;4.30;;;2.10;;
59016;SDS011;44800;55.600;38.134;2023-05-07T06:11:28;3.88;;;1.45;;
59016;SDS011;44800;55.600;38.134;2023-05-07T06:13:57;5.13;;;1.73;;
59016;SDS011;44800;55.600;38.134;2023-05-07T06:16:26;1.83;;;1.25;;
59016;SDS011;44800;55.600;38.134;2023-05-07T06:18:54;2.97;;;2.10;;
59016;SDS011;44800;55.600;38.134;2023-05-07T06:21:23;4.88;;;1.60;;
59016;SDS011;44800;55.600;38.134;2023-05-07T06:23:51;4.07;;;1.52;;
59016;SDS011;44800;55.600;38.134;2023-05-07T06:26:21;5.22;;;1.88;;
59016;SDS011;44800;55.600;38.134;2023-05-07T06:28:51;2.35;;;1.38;;
59016;SDS011;44800;55.600;38.134;2023-05-07T06:31:19;1.98;;;1.30;;
59016;SDS011;44800;55.600;38.134;2023-05-07T06:33:48;2.60;;;1.40;;
59016;SDS011;44800;55.600;38.134;2023-05-07T06:36:17;9.25;;;2.75;;
59016;SDS011;44800;55.600;38.134;2023-05-07T06:38:45;4.90;;;1.80;;
59016;SDS011;44800;55.600;38.134;2023-05-07T06:41:13;2.50;;;1.42;;
59016;SDS011;44800;55.600;38.134;2023-05-07T06:43:42;4.10;;;2.42;;
59016;SDS011;44800;55.600;38.134;2023-05-07T06:46:13;3.05;;;2.10;;
59016;SDS011;44800;55.600;38.134;2023-05-07T06:48:42;2.65;;;1.77;;
59016;SDS011;44800;55.600;38.134;2023-05-07T06:51:10;1.30;;;0.90;;
59016;SDS011;44800;55.600;38.134;2023-05-07T06:53:38;4.30;;;2.13;;
59016;SDS011;44800;55.600;38.134;2023-05-07T06:56:07;4.07;;;1.98;;
59016;SDS011;44800;55.600;38.134;2023-05-07T06:58:35;2.40;;;1.88;;
59016;SDS011;44800;55.600;38.134;2023-05-07T07:01:04;4.75;;;2.10;;
59016;SDS011;44800;55.600;38.134;2023-05-07T07:03:34;4.28;;;1.30;;
59016;SDS011;44800;55.600;38.134;2023-05-07T07:06:02;2.53;;;1.52;;
59016;SDS011;44800;55.600;38.134;2023-05-07T07:08:31;2.50;;;1.85;;
59016;SDS011;44800;55.600;38.134;2023-05-07T07:10:59;3.00;;;1.58;;
59016;SDS011;44800;55.600;38.134;2023-05-07T07:13:28;5.82;;;1.58;;
59016;SDS011;44800;55.600;38.134;2023-05-07T07:15:56;3.50;;;1.40;;
59016;SDS011;44800;55.600;38.134;2023-05-07T07:18:26;5.07;;;2.45;;
59016;SDS011;44800;55.600;38.134;2023-05-07T07:20:56;4.20;;;2.13;;
59016;SDS011;44800;55.600;38.134;2023-05-07T07:23:24;3.83;;;2.25;;
59016;SDS011;44800;55.600;38.134;2023-05-07T07:25:54;2.38;;;1.75;;
59016;SDS011;44800;55.600;38.134;2023-05-07T07:28:22;4.68;;;2.47;;
59016;SDS011;44800;55.600;38.134;2023-05-07T07:30:51;1.75;;;1.35;;
59016;SDS011;44800;55.600;38.134;2023-05-07T07:33:19;3.42;;;2.28;;
59016;SDS011;44800;55.600;38.134;2023-05-07T07:35:47;8.77;;;2.30;;
59016;SDS011;44800;55.600;38.134;2023-05-07T07:38:17;3.83;;;1.90;;
59016;SDS011;44800;55.600;38.134;2023-05-07T07:40:47;15.18;;;2.38;;
59016;SDS011;44800;55.600;38.134;2023-05-07T07:43:15;4.90;;;1.38;;
59016;SDS011;44800;55.600;38.134;2023-05-07T07:45:44;7.13;;;2.25;;
59016;SDS011;44800;55.600;38.134;2023-05-07T07:48:12;5.60;;;2.08;;
59016;SDS011;44800;55.600;38.134;2023-05-07T07:50:41;2.83;;;1.55;;
59016;SDS011;44800;55.600;38.134;2023-05-07T07:53:11;5.35;;;1.90;;
59016;SDS011;44800;55.600;38.134;2023-05-07T07:55:41;5.15;;;2.10;;
59016;SDS011;44800;55.600;38.134;2023-05-07T07:58:09;2.65;;;1.38;;
59016;SDS011;44800;55.600;38.134;2023-05-07T08:00:38;2.20;;;1.35;;
59016;SDS011;44800;55.600;38.134;2023-05-07T08:03:08;1.60;;;1.48;;
59016;SDS011;44800;55.600;38.134;2023-05-07T08:05:37;3.53;;;1.30;;
59016;SDS011;44800;55.600;38.134;2023-05-07T08:08:06;3.03;;;1.60;;
59016;SDS011;44800;55.600;38.134;2023-05-07T08:10:34;4.22;;;2.08;;
59016;SDS011;44800;55.600;38.134;2023-05-07T08:13:06;3.60;;;2.13;;
59016;SDS011;44800;55.600;38.134;2023-05-07T08:15:34;5.88;;;2.58;;
59016;SDS011;44800;55.600;38.134;2023-05-07T08:18:03;3.60;;;1.88;;
59016;SDS011;44800;55.600;38.134;2023-05-07T08:20:32;6.65;;;1.83;;
59016;SDS011;44800;55.600;38.134;2023-05-07T08:23:06;2.53;;;1.48;;
59016;SDS011;44800;55.600;38.134;2023-05-07T08:25:35;6.07;;;2.60;;
59016;SDS011;44800;55.600;38.134;2023-05-07T08:28:04;8.90;;;2.13;;
59016;SDS011;44800;55.600;38.134;2023-05-07T08:30:35;3.17;;;1.27;;
59016;SDS011;44800;55.600;38.134;2023-05-07T08:33:03;5.70;;;1.70;;
59016;SDS011;44800;55.600;38.134;2023-05-07T08:35:32;4.45;;;1.98;;
59016;SDS011;44800;55.600;38.134;2023-05-07T08:38:00;5.88;;;1.70;;
59016;SDS011;44800;55.600;38.134;2023-05-07T08:40:28;2.88;;;1.88;;
59016;SDS011;44800;55.600;38.134;2023-05-07T08:42:57;6.55;;;3.03;;
59016;SDS011;44800;55.600;38.134;2023-05-07T08:45:27;4.57;;;2.17;;
59016;SDS011;44800;55.600;38.134;2023-05-07T08:47:58;3.53;;;2.40;;
59016;SDS011;44800;55.600;38.134;2023-05-07T08:50:27;3.55;;;1.90;;
59016;SDS011;44800;55.600;38.134;2023-05-07T08:52:56;6.15;;;1.98;;
59016;SDS011;44800;55.600;38.134;2023-05-07T08:55:25;5.55;;;2.15;;
59016;SDS011;44800;55.600;38.134;2023-05-07T08:57:53;4.75;;;2.25;;
59016;SDS011;44800;55.600;38.134;2023-05-07T09:00:22;59.30;;;5.35;;
59016;SDS011;44800;55.600;38.134;2023-05-07T09:02:52;5.35;;;2.38;;
59016;SDS011;44800;55.600;38.134;2023-05-07T09:05:21;6.32;;;2.15;;
59016;SDS011;44800;55.600;38.134;2023-05-07T09:07:50;4.55;;;1.83;;
59016;SDS011;44800;55.600;38.134;2023-05-07T09:10:20;2.35;;;1.45;;
59016;SDS011;44800;55.600;38.134;2023-05-07T09:12:49;3.35;;;1.60;;
59016;SDS011;44800;55.600;38.134;2023-05-07T09:15:18;2.45;;;1.30;;
59016;SDS011;44800;55.600;38.134;2023-05-07T09:17:47;6.55;;;1.85;;
59016;SDS011;44800;55.600;38.134;2023-05-07T09:20:18;3.53;;;1.40;;
59016;SDS011;44800;55.600;38.134;2023-05-07T09:22:46;4.47;;;1.70;;
59016;SDS011;44800;55.600;38.134;2023-05-07T09:25:15;5.93;;;2.17;;
59016;SDS011;44800;55.600;38.134;2023-05-07T09:27:44;3.38;;;1.63;;
59016;SDS011;44800;55.600;38.134;2023-05-07T09:30:13;3.25;;;1.25;;
59016;SDS011;44800;55.600;38.134;2023-05-07T09:32:41;3.10;;;0.95;;
59016;SDS011;44800;55.600;38.134;2023-05-07T09:35:14;2.63;;;1.42;;
59016;SDS011;44800;55.600;38.134;2023-05-07T09:37:45;6.20;;;2.60;;
59016;SDS011;44800;55.600;38.134;2023-05-07T09:40:20;5.75;;;2.92;;
59016;SDS011;44800;55.600;38.134;2023-05-07T09:42:49;7.63;;;3.78;;
59016;SDS011;44800;55.600;38.134;2023-05-07T09:45:21;4.78;;;2.33;;
59016;SDS011;44800;55.600;38.134;2023-05-07T09:47:53;4.95;;;2.88;;
59016;SDS011;44800;55.600;38.134;2023-05-07T09:50:24;5.65;;;2.78;;
59016;SDS011;44800;55.600;38.134;2023-05-07T09:52:56;4.13;;;1.88;;
59016;SDS011;44800;55.600;38.134;2023-05-07T09:55:24;3.42;;;1.55;;
59016;SDS011;44800;55.600;38.134;2023-05-07T09:57:54;3.08;;;1.50;;
59016;SDS011;44800;55.600;38.134;2023-05-07T10:00:23;3.45;;;1.80;;
59016;SDS011;44800;55.600;38.134;2023-05-07T10:02:52;2.85;;;1.90;;
59016;SDS011;44800;55.600;38.134;2023-05-07T10:05:21;6.45;;;1.70;;
59016;SDS011;44800;55.600;38.134;2023-05-07T10:07:49;4.43;;;2.67;;
59016;SDS011;44800;55.600;38.134;2023-05-07T10:10:20;5.88;;;2.80;;
59016;SDS011;44800;55.600;38.134;2023-05-07T10:12:49;3.55;;;2.38;;
59016;SDS011;44800;55.600;38.134;2023-05-07T10:15:18;3.45;;;2.38;;
59016;SDS011;44800;55.600;38.134;2023-05-07T10:17:47;7.88;;;2.70;;
59016;SDS011;44800;55.600;38.134;2023-05-07T10:20:16;4.28;;;1.73;;
59016;SDS011;44800;55.600;38.134;2023-05-07T10:22:45;4.90;;;2.50;;
59016;SDS011;44800;55.600;38.134;2023-05-07T10:25:14;2.80;;;2.00;;
59016;SDS011;44800;55.600;38.134;2023-05-07T10:27:47;2.10;;;1.60;;
59016;SDS011;44800;55.600;38.134;2023-05-07T10:30:29;4.80;;;2.08;;
59016;SDS011;44800;55.600;38.134;2023-05-07T10:33:04;2.83;;;1.65;;
59016;SDS011;44800;55.600;38.134;2023-05-07T10:35:36;2.65;;;1.58;;
59016;SDS011;44800;55.600;38.134;2023-05-07T10:38:07;3.15;;;1.80;;
59016;SDS011;44800;55.600;38.134;2023-05-07T10:40:36;4.28;;;2.42;;
59016;SDS011;44800;55.600;38.134;2023-05-07T10:43:05;6.20;;;2.20;;
59016;SDS011;44800;55.600;38.134;2023-05-07T10:45:36;4.13;;;1.80;;
59016;SDS011;44800;55.600;38.134;2023-05-07T10:48:11;4.63;;;1.75;;
59016;SDS011;44800;55.600;38.134;2023-05-07T10:50:43;2.65;;;1.80;;
59016;SDS011;44800;55.600;38.134;2023-05-07T10:53:20;4.68;;;2.03;;
59016;SDS011;44800;55.600;38.134;2023-05-07T10:55:51;3.35;;;1.45;;
59016;SDS011;44800;55.600;38.134;2023-05-07T10:58:24;2.08;;;1.50;;
59016;SDS011;44800;55.600;38.134;2023-05-07T11:00:59;8.82;;;2.00;;
59016;SDS011;44800;55.600;38.134;2023-05-07T11:03:28;7.88;;;2.13;;
59016;SDS011;44800;55.600;38.134;2023-05-07T11:06:10;7.20;;;2.83;;
59016;SDS011;44800;55.600;38.134;2023-05-07T11:11:43;6.18;;;2.55;;
59016;SDS011;44800;55.600;38.134;2023-05-07T11:14:15;8.98;;;5.35;;
59016;SDS011;44800;55.600;38.134;2023-05-07T11:17:12;6.07;;;2.78;;
59016;SDS011;44800;55.600;38.134;2023-05-07T11:19:50;6.38;;;3.95;;
59016;SDS011;44800;55.600;38.134;2023-05-07T11:25:06;5.72;;;1.52;;
59016;SDS011;44800;55.600;38.134;2023-05-07T11:27:35;8.63;;;2.10;;
59016;SDS011;44800;55.600;38.134;2023-05-07T11:30:06;3.58;;;1.63;;
59016;SDS011;44800;55.600;38.134;2023-05-07T11:32:36;2.58;;;1.90;;
59016;SDS011;44800;55.600;38.134;2023-05-07T11:35:05;2.25;;;1.58;;
59016;SDS011;44800;55.600;38.134;2023-05-07T11:37:35;3.63;;;1.80;;
59016;SDS011;44800;55.600;38.134;2023-05-07T11:40:03;2.60;;;1.52;;
59016;SDS011;44800;55.600;38.134;2023-05-07T11:42:34;3.33;;;2.03;;
59016;SDS011;44800;55.600;38.134;2023-05-07T11:45:06;4.10;;;1.60;;
59016;SDS011;44800;55.600;38.134;2023-05-07T11:47:36;2.72;;;1.63;;
59016;SDS011;44800;55.600;38.134;2023-05-07T11:50:04;2.40;;;1.70;;
59016;SDS011;44800;55.600;38.134;2023-05-07T11:52:35;3.28;;;1.83;;
59016;SDS011;44800;55.600;38.134;2023-05-07T11:55:03;4.57;;;2.20;;
59016;SDS011;44800;55.600;38.134;2023-05-07T11:57:32;5.30;;;2.30;;
59016;SDS011;44800;55.600;38.134;2023-05-07T12:00:01;3.63;;;2.30;;
59016;SDS011;44800;55.600;38.134;2023-05-07T12:02:35;3.78;;;1.65;;
59016;SDS011;44800;55.600;38.134;2023-05-07T12:05:04;6.13;;;2.40;;
59016;SDS011;44800;55.600;38.134;2023-05-07T12:07:33;2.42;;;2.00;;
59016;SDS011;44800;55.600;38.134;2023-05-07T12:10:04;4.68;;;2.28;;
59016;SDS011;44800;55.600;38.134;2023-05-07T12:12:37;7.18;;;2.75;;
59016;SDS011;44800;55.600;38.134;2023-05-07T12:15:07;4.13;;;2.88;;
59016;SDS011;44800;55.600;38.134;2023-05-07T12:17:38;9.40;;;3.40;;
59016;SDS011;44800;55.600;38.134;2023-05-07T12:20:08;6.43;;;3.20;;
59016;SDS011;44800;55.600;38.134;2023-05-07T12:22:38;6.95;;;3.72;;
59016;SDS011;44800;55.600;38.134;2023-05-07T12:25:06;4.30;;;1.88;;
59016;SDS011;44800;55.600;38.134;2023-05-07T12:27:36;4.28;;;2.88;;
59016;SDS011;44800;55.600;38.134;2023-05-07T12:30:05;4.40;;;1.80;;
59016;SDS011;44800;55.600;38.134;2023-05-07T12:32:38;4.05;;;1.77;;
59016;SDS011;44800;55.600;38.134;2023-05-07T12:35:08;3.17;;;1.83;;
59016;SDS011;44800;55.600;38.134;2023-05-07T12:37:37;4.60;;;2.20;;
59016;SDS011;44800;55.600;38.134;2023-05-07T12:40:05;3.35;;;2.10;;
59016;SDS011;44800;55.600;38.134;2023-05-07T12:42:35;3.13;;;2.10;;
59016;SDS011;44800;55.600;38.134;2023-05-07T12:45:08;5.68;;;3.08;;
59016;SDS011;44800;55.600;38.134;2023-05-07T12:50:11;4.68;;;2.40;;
59016;SDS011;44800;55.600;38.134;2023-05-07T12:52:39;5.05;;;2.15;;
59016;SDS011;44800;55.600;38.134;2023-05-07T12:55:08;6.95;;;2.20;;
59016;SDS011;44800;55.600;38.134;2023-05-07T12:57:38;7.57;;;3.00;;
59016;SDS011;44800;55.600;38.134;2023-05-07T13:00:07;7.72;;;2.63;;
59016;SDS011;44800;55.600;38.134;2023-05-07T13:02:37;6.82;;;2.80;;
59016;SDS011;44800;55.600;38.134;2023-05-07T13:05:08;6.60;;;2.97;;
59016;SDS011;44800;55.600;38.134;2023-05-07T13:07:37;7.20;;;2.83;;
59016;SDS011;44800;55.600;38.134;2023-05-07T13:10:07;9.32;;;4.07;;
59016;SDS011;44800;55.600;38.134;2023-05-07T13:12:36;6.72;;;3.47;;
59016;SDS011;44800;55.600;38.134;2023-05-07T13:15:05;7.85;;;3.35;;
59016;SDS011;44800;55.600;38.134;2023-05-07T13:17:34;10.20;;;3.65;;
59016;SDS011;44800;55.600;38.134;2023-05-07T13:20:03;6.22;;;3.35;;
59016;SDS011;44800;55.600;38.134;2023-05-07T13:22:33;3.25;;;1.98;;
59016;SDS011;44800;55.600;38.134;2023-05-07T13:25:02;4.70;;;2.25;;
59016;SDS011;44800;55.600;38.134;2023-05-07T13:27:31;6.25;;;3.03;;
59016;SDS011;44800;55.600;38.134;2023-05-07T13:30:03;8.18;;;2.80;;
59016;SDS011;44800;55.600;38.134;2023-05-07T13:32:32;3.03;;;1.92;;
59016;SDS011;44800;55.600;38.134;2023-05-07T13:35:01;4.28;;;1.90;;
59016;SDS011;44800;55.600;38.134;2023-05-07T13:37:30;4.82;;;2.30;;
59016;SDS011;44800;55.600;38.134;2023-05-07T13:40:00;5.50;;;1.95;;
59016;SDS011;44800;55.600;38.134;2023-05-07T13:42:29;2.83;;;1.85;;
59016;SDS011;44800;55.600;38.134;2023-05-07T13:44:58;8.38;;;2.35;;
59016;SDS011;44800;55.600;38.134;2023-05-07T13:47:29;5.20;;;3.03;;
59016;SDS011;44800;55.600;38.134;2023-05-07T13:49:57;4.32;;;2.47;;
59016;SDS011;44800;55.600;38.134;2023-05-07T13:52:26;6.68;;;2.35;;
59016;SDS011;44800;55.600;38.134;2023-05-07T13:54:54;6.40;;;3.47;;
59016;SDS011;44800;55.600;38.134;2023-05-07T13:57:26;6.10;;;3.58;;
59016;SDS011;44800;55.600;38.134;2023-05-07T13:59:55;8.60;;;2.95;;
59016;SDS011;44800;55.600;38.134;2023-05-07T14:02:23;13.30;;;4.18;;
59016;SDS011;44800;55.600;38.134;2023-05-07T14:04:52;7.95;;;3.42;;
59016;SDS011;44800;55.600;38.134;2023-05-07T14:07:20;5.72;;;3.00;;
59016;SDS011;44800;55.600;38.134;2023-05-07T14:09:49;3.38;;;2.30;;
59016;SDS011;44800;55.600;38.134;2023-05-07T14:12:18;6.40;;;2.30;;
59016;SDS011;44800;55.600;38.134;2023-05-07T14:14:48;5.93;;;2.40;;
59016;SDS011;44800;55.600;38.134;2023-05-07T14:17:16;4.78;;;2.65;;
59016;SDS011;44800;55.600;38.134;2023-05-07T14:19:44;5.25;;;2.35;;
59016;SDS011;44800;55.600;38.134;2023-05-07T14:22:13;5.75;;;3.15;;
59016;SDS011;44800;55.600;38.134;2023-05-07T14:24:42;7.35;;;3.85;;
59016;SDS011;44800;55.600;38.134;2023-05-07T14:27:12;4.28;;;2.78;;
59016;SDS011;44800;55.600;38.134;2023-05-07T14:29:40;5.05;;;3.45;;
59016;SDS011;44800;55.600;38.134;2023-05-07T14:32:11;7.30;;;2.67;;
59016;SDS011;44800;55.600;38.134;2023-05-07T14:34:39;3.97;;;2.67;;
59016;SDS011;44800;55.600;38.134;2023-05-07T14:37:08;4.22;;;2.30;;
59016;SDS011;44800;55.600;38.134;2023-05-07T14:39:36;6.00;;;2.10;;
59016;SDS011;44800;55.600;38.134;2023-05-07T14:42:05;3.95;;;2.47;;
59016;SDS011;44800;55.600;38.134;2023-05-07T14:44:35;3.90;;;2.70;;
59016;SDS011;44800;55.600;38.134;2023-05-07T14:47:04;3.67;;;2.38;;
59016;SDS011;44800;55.600;38.134;2023-05-07T14:49:34;3.17;;;2.42;;
59016;SDS011;44800;55.600;38.134;2023-05-07T14:52:03;7.18;;;2.85;;
59016;SDS011;44800;55.600;38.134;2023-05-07T14:54:33;5.30;;;2.88;;